Terminal Aerodrome Forecast
Issued by NWS New Orleans/Baton Rouge, LA

Home | Current Version | Previous Version | Text Only | Print | Product List | Glossary On
Versions: 1 2 3 4 5 6 7 8 9 10 11 12 13 14 15 16 17 18 19 20 21 22 23 24
000
FTUS44 KLIX 211123
TAFNEW
TAF
KNEW 211123Z 2112/2212 11009KT P6SM SCT030 BKN130
     FM211700 12013KT P6SM VCSH SCT030 BKN100
     FM212100 12013KT P6SM SCT030 BKN060 PROB30 2121/2203 4SM TSRA
      BKN020CB
     FM220700 12011KT P6SM SCT015 BKN030 PROB30 2207/2212 4SM TSRA
      BKN015CB=

USA.gov is the U.S. government's official web portal to all federal, state and local government web resources and services.